sensor_id;sensor_type;location;lat;lon;timestamp;P1;durP1;ratioP1;P2;durP2;ratioP2
4585;SDS011;2305;50.118;8.952;2023-02-22T00:00:57;6.53;;;4.57;;
4585;SDS011;2305;50.118;8.952;2023-02-22T00:03:34;8.70;;;4.37;;
4585;SDS011;2305;50.118;8.952;2023-02-22T00:06:02;6.50;;;3.97;;
4585;SDS011;2305;50.118;8.952;2023-02-22T00:08:33;8.10;;;4.70;;
4585;SDS011;2305;50.118;8.952;2023-02-22T00:11:03;7.63;;;4.00;;
4585;SDS011;2305;50.118;8.952;2023-02-22T00:13:34;9.80;;;5.13;;
4585;SDS011;2305;50.118;8.952;2023-02-22T00:16:03;11.27;;;4.90;;
4585;SDS011;2305;50.118;8.952;2023-02-22T00:18:35;10.93;;;5.07;;
4585;SDS011;2305;50.118;8.952;2023-02-22T00:21:04;8.07;;;4.90;;
4585;SDS011;2305;50.118;8.952;2023-02-22T00:23:36;8.40;;;4.77;;
4585;SDS011;2305;50.118;8.952;2023-02-22T00:26:06;6.90;;;4.80;;
4585;SDS011;2305;50.118;8.952;2023-02-22T00:28:35;6.57;;;4.80;;
4585;SDS011;2305;50.118;8.952;2023-02-22T00:31:04;7.17;;;4.90;;
4585;SDS011;2305;50.118;8.952;2023-02-22T00:33:39;10.43;;;5.73;;
4585;SDS011;2305;50.118;8.952;2023-02-22T00:36:08;10.30;;;4.97;;
4585;SDS011;2305;50.118;8.952;2023-02-22T00:38:38;9.40;;;5.63;;
4585;SDS011;2305;50.118;8.952;2023-02-22T00:41:06;17.20;;;5.30;;
4585;SDS011;2305;50.118;8.952;2023-02-22T00:43:37;9.87;;;4.97;;
4585;SDS011;2305;50.118;8.952;2023-02-22T00:46:05;7.97;;;5.17;;
4585;SDS011;2305;50.118;8.952;2023-02-22T00:48:34;9.53;;;5.63;;
4585;SDS011;2305;50.118;8.952;2023-02-22T00:51:03;7.90;;;4.93;;
4585;SDS011;2305;50.118;8.952;2023-02-22T00:53:31;12.57;;;5.73;;
4585;SDS011;2305;50.118;8.952;2023-02-22T00:55:59;12.27;;;5.90;;
4585;SDS011;2305;50.118;8.952;2023-02-22T00:58:27;8.53;;;4.93;;
4585;SDS011;2305;50.118;8.952;2023-02-22T01:00:59;11.03;;;5.50;;
4585;SDS011;2305;50.118;8.952;2023-02-22T01:03:27;7.83;;;4.80;;
4585;SDS011;2305;50.118;8.952;2023-02-22T01:05:57;8.13;;;5.33;;
4585;SDS011;2305;50.118;8.952;2023-02-22T01:08:27;11.77;;;5.30;;
4585;SDS011;2305;50.118;8.952;2023-02-22T01:10:56;15.83;;;5.37;;
4585;SDS011;2305;50.118;8.952;2023-02-22T01:13:27;9.93;;;5.37;;
4585;SDS011;2305;50.118;8.952;2023-02-22T01:15:55;9.10;;;4.60;;
4585;SDS011;2305;50.118;8.952;2023-02-22T01:18:23;10.83;;;5.33;;
4585;SDS011;2305;50.118;8.952;2023-02-22T01:20:54;10.03;;;5.03;;
4585;SDS011;2305;50.118;8.952;2023-02-22T01:23:22;8.77;;;4.80;;
4585;SDS011;2305;50.118;8.952;2023-02-22T01:25:52;12.60;;;5.23;;
4585;SDS011;2305;50.118;8.952;2023-02-22T01:28:20;10.53;;;5.53;;
4585;SDS011;2305;50.118;8.952;2023-02-22T01:30:48;9.83;;;5.23;;
4585;SDS011;2305;50.118;8.952;2023-02-22T01:33:17;8.03;;;4.80;;
4585;SDS011;2305;50.118;8.952;2023-02-22T01:35:45;9.73;;;5.10;;
4585;SDS011;2305;50.118;8.952;2023-02-22T01:38:13;12.97;;;5.90;;
4585;SDS011;2305;50.118;8.952;2023-02-22T01:40:42;8.10;;;4.63;;
4585;SDS011;2305;50.118;8.952;2023-02-22T01:43:17;14.13;;;5.13;;
4585;SDS011;2305;50.118;8.952;2023-02-22T01:45:54;12.50;;;5.60;;
4585;SDS011;2305;50.118;8.952;2023-02-22T01:48:30;11.40;;;4.23;;
4585;SDS011;2305;50.118;8.952;2023-02-22T01:51:03;8.23;;;4.77;;
4585;SDS011;2305;50.118;8.952;2023-02-22T01:53:37;7.67;;;4.80;;
4585;SDS011;2305;50.118;8.952;2023-02-22T01:56:12;6.63;;;4.20;;
4585;SDS011;2305;50.118;8.952;2023-02-22T01:58:43;5.00;;;4.50;;
4585;SDS011;2305;50.118;8.952;2023-02-22T02:01:17;8.13;;;4.63;;
4585;SDS011;2305;50.118;8.952;2023-02-22T02:03:48;7.07;;;4.60;;
4585;SDS011;2305;50.118;8.952;2023-02-22T02:06:18;7.50;;;4.60;;
4585;SDS011;2305;50.118;8.952;2023-02-22T02:08:52;8.77;;;5.33;;
4585;SDS011;2305;50.118;8.952;2023-02-22T02:11:28;8.03;;;4.60;;
4585;SDS011;2305;50.118;8.952;2023-02-22T02:14:00;7.73;;;4.93;;
4585;SDS011;2305;50.118;8.952;2023-02-22T02:16:32;6.60;;;4.57;;
4585;SDS011;2305;50.118;8.952;2023-02-22T02:19:05;6.17;;;4.30;;
4585;SDS011;2305;50.118;8.952;2023-02-22T02:21:52;7.73;;;4.53;;
4585;SDS011;2305;50.118;8.952;2023-02-22T02:24:50;7.20;;;5.10;;
4585;SDS011;2305;50.118;8.952;2023-02-22T02:33:50;10.50;;;4.80;;
4585;SDS011;2305;50.118;8.952;2023-02-22T02:36:28;10.17;;;5.00;;
4585;SDS011;2305;50.118;8.952;2023-02-22T02:39:00;6.20;;;4.13;;
4585;SDS011;2305;50.118;8.952;2023-02-22T02:41:38;6.27;;;4.57;;
4585;SDS011;2305;50.118;8.952;2023-02-22T02:44:13;7.37;;;4.90;;
4585;SDS011;2305;50.118;8.952;2023-02-22T02:46:51;7.07;;;5.17;;
4585;SDS011;2305;50.118;8.952;2023-02-22T02:49:26;6.63;;;4.70;;
4585;SDS011;2305;50.118;8.952;2023-02-22T02:51:57;9.23;;;5.07;;
4585;SDS011;2305;50.118;8.952;2023-02-22T02:54:29;14.33;;;4.87;;
4585;SDS011;2305;50.118;8.952;2023-02-22T02:56:58;8.33;;;4.97;;
4585;SDS011;2305;50.118;8.952;2023-02-22T02:59:27;8.40;;;4.50;;
4585;SDS011;2305;50.118;8.952;2023-02-22T03:02:02;7.63;;;5.33;;
4585;SDS011;2305;50.118;8.952;2023-02-22T03:04:53;6.30;;;4.40;;
4585;SDS011;2305;50.118;8.952;2023-02-22T03:07:38;8.47;;;5.13;;
4585;SDS011;2305;50.118;8.952;2023-02-22T03:10:21;9.97;;;4.93;;
4585;SDS011;2305;50.118;8.952;2023-02-22T03:12:58;6.73;;;4.83;;
4585;SDS011;2305;50.118;8.952;2023-02-22T03:15:32;6.00;;;4.00;;
4585;SDS011;2305;50.118;8.952;2023-02-22T03:18:13;9.13;;;4.97;;
4585;SDS011;2305;50.118;8.952;2023-02-22T03:20:52;7.20;;;4.80;;
4585;SDS011;2305;50.118;8.952;2023-02-22T03:23:28;7.10;;;4.27;;
4585;SDS011;2305;50.118;8.952;2023-02-22T03:26:02;8.33;;;5.27;;
4585;SDS011;2305;50.118;8.952;2023-02-22T03:28:36;7.83;;;5.00;;
4585;SDS011;2305;50.118;8.952;2023-02-22T03:31:09;8.70;;;4.70;;
4585;SDS011;2305;50.118;8.952;2023-02-22T03:33:42;9.67;;;5.90;;
4585;SDS011;2305;50.118;8.952;2023-02-22T03:36:17;8.33;;;5.20;;
4585;SDS011;2305;50.118;8.952;2023-02-22T03:38:52;9.63;;;5.13;;
4585;SDS011;2305;50.118;8.952;2023-02-22T03:41:24;7.40;;;5.37;;
4585;SDS011;2305;50.118;8.952;2023-02-22T03:43:56;6.73;;;5.13;;
4585;SDS011;2305;50.118;8.952;2023-02-22T03:46:28;8.20;;;5.20;;
4585;SDS011;2305;50.118;8.952;2023-02-22T03:48:59;7.80;;;4.33;;
4585;SDS011;2305;50.118;8.952;2023-02-22T03:51:38;9.13;;;4.50;;
4585;SDS011;2305;50.118;8.952;2023-02-22T03:54:08;9.23;;;5.10;;
4585;SDS011;2305;50.118;8.952;2023-02-22T03:56:47;9.33;;;5.50;;
4585;SDS011;2305;50.118;8.952;2023-02-22T03:59:20;11.20;;;4.87;;
4585;SDS011;2305;50.118;8.952;2023-02-22T04:01:50;6.97;;;4.63;;
4585;SDS011;2305;50.118;8.952;2023-02-22T04:04:19;7.57;;;4.67;;
4585;SDS011;2305;50.118;8.952;2023-02-22T04:06:51;6.70;;;4.80;;
4585;SDS011;2305;50.118;8.952;2023-02-22T04:09:20;8.90;;;4.87;;
4585;SDS011;2305;50.118;8.952;2023-02-22T04:11:48;9.83;;;4.93;;
4585;SDS011;2305;50.118;8.952;2023-02-22T04:14:16;6.23;;;4.83;;
4585;SDS011;2305;50.118;8.952;2023-02-22T04:16:47;7.00;;;4.33;;
4585;SDS011;2305;50.118;8.952;2023-02-22T04:19:16;7.17;;;4.77;;
4585;SDS011;2305;50.118;8.952;2023-02-22T04:21:44;10.23;;;5.20;;
4585;SDS011;2305;50.118;8.952;2023-02-22T04:24:20;6.00;;;4.53;;
4585;SDS011;2305;50.118;8.952;2023-02-22T04:26:49;17.63;;;4.63;;
4585;SDS011;2305;50.118;8.952;2023-02-22T04:29:19;7.53;;;4.90;;
4585;SDS011;2305;50.118;8.952;2023-02-22T04:31:50;6.40;;;4.70;;
4585;SDS011;2305;50.118;8.952;2023-02-22T04:34:18;10.00;;;4.87;;
4585;SDS011;2305;50.118;8.952;2023-02-22T04:36:47;7.57;;;4.50;;
4585;SDS011;2305;50.118;8.952;2023-02-22T04:39:15;5.83;;;4.33;;
4585;SDS011;2305;50.118;8.952;2023-02-22T04:41:45;6.00;;;4.70;;
4585;SDS011;2305;50.118;8.952;2023-02-22T04:44:13;8.93;;;5.13;;
4585;SDS011;2305;50.118;8.952;2023-02-22T04:46:41;8.90;;;5.00;;
4585;SDS011;2305;50.118;8.952;2023-02-22T04:49:13;7.03;;;4.03;;
4585;SDS011;2305;50.118;8.952;2023-02-22T04:51:43;6.87;;;4.73;;
4585;SDS011;2305;50.118;8.952;2023-02-22T04:54:11;5.53;;;4.27;;
4585;SDS011;2305;50.118;8.952;2023-02-22T04:56:43;6.80;;;4.40;;
4585;SDS011;2305;50.118;8.952;2023-02-22T04:59:16;9.10;;;5.33;;
4585;SDS011;2305;50.118;8.952;2023-02-22T05:01:51;8.00;;;5.37;;
4585;SDS011;2305;50.118;8.952;2023-02-22T05:04:19;12.20;;;4.60;;
4585;SDS011;2305;50.118;8.952;2023-02-22T05:06:48;7.53;;;5.30;;
4585;SDS011;2305;50.118;8.952;2023-02-22T05:09:20;10.20;;;5.23;;
4585;SDS011;2305;50.118;8.952;2023-02-22T05:11:52;7.83;;;5.10;;
4585;SDS011;2305;50.118;8.952;2023-02-22T05:14:20;24.60;;;5.80;;
4585;SDS011;2305;50.118;8.952;2023-02-22T05:16:52;5.40;;;4.27;;
4585;SDS011;2305;50.118;8.952;2023-02-22T05:19:21;5.10;;;4.30;;
4585;SDS011;2305;50.118;8.952;2023-02-22T05:21:50;5.57;;;3.77;;
4585;SDS011;2305;50.118;8.952;2023-02-22T05:24:18;8.03;;;5.20;;
4585;SDS011;2305;50.118;8.952;2023-02-22T05:26:46;9.50;;;4.80;;
4585;SDS011;2305;50.118;8.952;2023-02-22T05:29:18;9.27;;;4.63;;
4585;SDS011;2305;50.118;8.952;2023-02-22T05:31:49;5.60;;;4.47;;
4585;SDS011;2305;50.118;8.952;2023-02-22T05:34:17;5.87;;;4.10;;
4585;SDS011;2305;50.118;8.952;2023-02-22T05:36:45;6.00;;;4.33;;
4585;SDS011;2305;50.118;8.952;2023-02-22T05:39:13;7.03;;;4.57;;
4585;SDS011;2305;50.118;8.952;2023-02-22T05:41:41;8.30;;;4.70;;
4585;SDS011;2305;50.118;8.952;2023-02-22T05:44:09;9.23;;;4.30;;
4585;SDS011;2305;50.118;8.952;2023-02-22T05:46:39;7.73;;;4.30;;
4585;SDS011;2305;50.118;8.952;2023-02-22T05:49:07;7.87;;;4.90;;
4585;SDS011;2305;50.118;8.952;2023-02-22T05:51:34;8.70;;;5.10;;
4585;SDS011;2305;50.118;8.952;2023-02-22T05:54:03;9.13;;;4.90;;
4585;SDS011;2305;50.118;8.952;2023-02-22T05:56:31;19.10;;;4.43;;
4585;SDS011;2305;50.118;8.952;2023-02-22T05:58:59;8.97;;;5.40;;
4585;SDS011;2305;50.118;8.952;2023-02-22T06:01:30;7.70;;;4.60;;
4585;SDS011;2305;50.118;8.952;2023-02-22T06:04:00;7.17;;;5.30;;
4585;SDS011;2305;50.118;8.952;2023-02-22T06:06:28;10.87;;;4.87;;
4585;SDS011;2305;50.118;8.952;2023-02-22T06:08:56;5.90;;;4.27;;
4585;SDS011;2305;50.118;8.952;2023-02-22T06:11:27;9.00;;;5.60;;
4585;SDS011;2305;50.118;8.952;2023-02-22T06:13:55;8.20;;;5.30;;
4585;SDS011;2305;50.118;8.952;2023-02-22T06:16:24;8.67;;;5.23;;
4585;SDS011;2305;50.118;8.952;2023-02-22T06:18:52;8.10;;;4.90;;
4585;SDS011;2305;50.118;8.952;2023-02-22T06:21:21;7.43;;;5.20;;
4585;SDS011;2305;50.118;8.952;2023-02-22T06:23:49;6.47;;;5.20;;
4585;SDS011;2305;50.118;8.952;2023-02-22T06:26:17;8.20;;;5.40;;
4585;SDS011;2305;50.118;8.952;2023-02-22T06:28:46;13.03;;;6.20;;
4585;SDS011;2305;50.118;8.952;2023-02-22T06:31:16;7.47;;;5.20;;
4585;SDS011;2305;50.118;8.952;2023-02-22T06:33:46;9.20;;;5.37;;
4585;SDS011;2305;50.118;8.952;2023-02-22T06:36:14;10.73;;;6.20;;
4585;SDS011;2305;50.118;8.952;2023-02-22T06:38:43;10.57;;;5.83;;
4585;SDS011;2305;50.118;8.952;2023-02-22T06:41:14;8.00;;;5.17;;
4585;SDS011;2305;50.118;8.952;2023-02-22T06:43:42;11.47;;;5.87;;
4585;SDS011;2305;50.118;8.952;2023-02-22T06:46:11;7.57;;;5.10;;
4585;SDS011;2305;50.118;8.952;2023-02-22T06:48:39;12.10;;;6.07;;
4585;SDS011;2305;50.118;8.952;2023-02-22T06:51:07;9.87;;;5.67;;
4585;SDS011;2305;50.118;8.952;2023-02-22T06:53:36;8.43;;;5.00;;
4585;SDS011;2305;50.118;8.952;2023-02-22T06:56:07;7.97;;;5.07;;
4585;SDS011;2305;50.118;8.952;2023-02-22T06:58:35;9.33;;;6.27;;
4585;SDS011;2305;50.118;8.952;2023-02-22T07:01:04;10.63;;;6.70;;
4585;SDS011;2305;50.118;8.952;2023-02-22T07:03:34;9.30;;;6.13;;
4585;SDS011;2305;50.118;8.952;2023-02-22T07:06:03;10.77;;;6.30;;
4585;SDS011;2305;50.118;8.952;2023-02-22T07:08:31;10.63;;;6.43;;
4585;SDS011;2305;50.118;8.952;2023-02-22T07:11:02;20.10;;;7.43;;
4585;SDS011;2305;50.118;8.952;2023-02-22T07:13:32;16.33;;;8.13;;
4585;SDS011;2305;50.118;8.952;2023-02-22T07:16:05;10.70;;;5.60;;
4585;SDS011;2305;50.118;8.952;2023-02-22T07:18:35;14.23;;;6.60;;
4585;SDS011;2305;50.118;8.952;2023-02-22T07:21:04;9.93;;;6.57;;
4585;SDS011;2305;50.118;8.952;2023-02-22T07:23:34;9.73;;;6.27;;
4585;SDS011;2305;50.118;8.952;2023-02-22T07:26:02;10.87;;;7.30;;
4585;SDS011;2305;50.118;8.952;2023-02-22T07:28:33;8.57;;;5.87;;
4585;SDS011;2305;50.118;8.952;2023-02-22T07:31:01;14.70;;;7.00;;
4585;SDS011;2305;50.118;8.952;2023-02-22T07:33:30;10.90;;;5.60;;
4585;SDS011;2305;50.118;8.952;2023-02-22T07:35:58;9.13;;;5.87;;
4585;SDS011;2305;50.118;8.952;2023-02-22T07:38:26;11.13;;;7.23;;
4585;SDS011;2305;50.118;8.952;2023-02-22T07:40:57;9.10;;;6.10;;
4585;SDS011;2305;50.118;8.952;2023-02-22T07:43:26;10.07;;;5.93;;
4585;SDS011;2305;50.118;8.952;2023-02-22T07:45:59;8.20;;;5.60;;
4585;SDS011;2305;50.118;8.952;2023-02-22T07:48:29;7.67;;;4.87;;
4585;SDS011;2305;50.118;8.952;2023-02-22T07:50:58;8.10;;;5.10;;
4585;SDS011;2305;50.118;8.952;2023-02-22T07:53:29;9.53;;;4.80;;
4585;SDS011;2305;50.118;8.952;2023-02-22T07:55:59;18.47;;;6.77;;
4585;SDS011;2305;50.118;8.952;2023-02-22T07:58:29;9.10;;;5.47;;
4585;SDS011;2305;50.118;8.952;2023-02-22T08:01:00;13.00;;;5.73;;
4585;SDS011;2305;50.118;8.952;2023-02-22T08:03:29;5.67;;;4.93;;
4585;SDS011;2305;50.118;8.952;2023-02-22T08:06:03;15.50;;;6.70;;
4585;SDS011;2305;50.118;8.952;2023-02-22T08:08:33;23.73;;;7.27;;
4585;SDS011;2305;50.118;8.952;2023-02-22T08:11:02;12.07;;;5.83;;
4585;SDS011;2305;50.118;8.952;2023-02-22T08:13:30;16.87;;;7.43;;
4585;SDS011;2305;50.118;8.952;2023-02-22T08:16:01;12.17;;;7.27;;
4585;SDS011;2305;50.118;8.952;2023-02-22T08:18:30;12.60;;;7.67;;
4585;SDS011;2305;50.118;8.952;2023-02-22T08:20:58;16.13;;;8.70;;
4585;SDS011;2305;50.118;8.952;2023-02-22T08:23:26;18.10;;;8.97;;
4585;SDS011;2305;50.118;8.952;2023-02-22T08:26:02;15.43;;;8.77;;
4585;SDS011;2305;50.118;8.952;2023-02-22T08:28:31;22.90;;;10.40;;
4585;SDS011;2305;50.118;8.952;2023-02-22T08:31:01;18.80;;;11.93;;
4585;SDS011;2305;50.118;8.952;2023-02-22T08:33:29;17.17;;;11.27;;
4585;SDS011;2305;50.118;8.952;2023-02-22T08:35:57;19.23;;;10.30;;
4585;SDS011;2305;50.118;8.952;2023-02-22T08:38:28;17.80;;;10.30;;
4585;SDS011;2305;50.118;8.952;2023-02-22T08:40:57;16.13;;;9.43;;
4585;SDS011;2305;50.118;8.952;2023-02-22T08:43:26;11.73;;;7.60;;
4585;SDS011;2305;50.118;8.952;2023-02-22T08:45:55;19.97;;;8.83;;
4585;SDS011;2305;50.118;8.952;2023-02-22T08:48:24;11.30;;;7.53;;
4585;SDS011;2305;50.118;8.952;2023-02-22T08:50:52;13.07;;;8.83;;
4585;SDS011;2305;50.118;8.952;2023-02-22T08:53:21;15.53;;;9.20;;
4585;SDS011;2305;50.118;8.952;2023-02-22T08:55:52;16.00;;;9.83;;
4585;SDS011;2305;50.118;8.952;2023-02-22T08:58:20;18.87;;;9.80;;
4585;SDS011;2305;50.118;8.952;2023-02-22T09:00:48;25.57;;;12.63;;
4585;SDS011;2305;50.118;8.952;2023-02-22T09:03:16;27.57;;;12.17;;
4585;SDS011;2305;50.118;8.952;2023-02-22T09:05:46;22.67;;;11.83;;
4585;SDS011;2305;50.118;8.952;2023-02-22T09:08:15;24.90;;;12.20;;
4585;SDS011;2305;50.118;8.952;2023-02-22T09:10:43;26.90;;;14.30;;
4585;SDS011;2305;50.118;8.952;2023-02-22T09:13:12;26.43;;;12.93;;
4585;SDS011;2305;50.118;8.952;2023-02-22T09:15:40;29.00;;;12.80;;
4585;SDS011;2305;50.118;8.952;2023-02-22T09:18:11;25.40;;;12.70;;
4585;SDS011;2305;50.118;8.952;2023-02-22T09:20:43;22.70;;;12.67;;
4585;SDS011;2305;50.118;8.952;2023-02-22T09:23:13;20.50;;;12.03;;
4585;SDS011;2305;50.118;8.952;2023-02-22T09:25:41;27.93;;;14.00;;
4585;SDS011;2305;50.118;8.952;2023-02-22T09:28:09;26.10;;;12.73;;
4585;SDS011;2305;50.118;8.952;2023-02-22T09:30:42;25.50;;;13.17;;
4585;SDS011;2305;50.118;8.952;2023-02-22T09:33:12;26.43;;;14.37;;
4585;SDS011;2305;50.118;8.952;2023-02-22T09:35:44;35.73;;;13.93;;
4585;SDS011;2305;50.118;8.952;2023-02-22T09:38:19;37.87;;;15.10;;
4585;SDS011;2305;50.118;8.952;2023-02-22T09:40:51;41.23;;;14.80;;
4585;SDS011;2305;50.118;8.952;2023-02-22T09:43:26;29.13;;;13.80;;
4585;SDS011;2305;50.118;8.952;2023-02-22T09:46:04;22.23;;;13.30;;
4585;SDS011;2305;50.118;8.952;2023-02-22T09:48:44;29.57;;;14.30;;
4585;SDS011;2305;50.118;8.952;2023-02-22T09:51:24;18.53;;;11.10;;
4585;SDS011;2305;50.118;8.952;2023-02-22T09:53:59;19.37;;;10.77;;
4585;SDS011;2305;50.118;8.952;2023-02-22T09:56:30;22.33;;;12.57;;
4585;SDS011;2305;50.118;8.952;2023-02-22T09:59:04;28.93;;;13.30;;
4585;SDS011;2305;50.118;8.952;2023-02-22T10:01:38;20.77;;;12.07;;
4585;SDS011;2305;50.118;8.952;2023-02-22T10:04:10;22.07;;;13.13;;
4585;SDS011;2305;50.118;8.952;2023-02-22T10:06:59;22.10;;;14.30;;
4585;SDS011;2305;50.118;8.952;2023-02-22T10:09:35;23.80;;;12.97;;
4585;SDS011;2305;50.118;8.952;2023-02-22T10:12:09;21.47;;;13.17;;
4585;SDS011;2305;50.118;8.952;2023-02-22T10:14:47;33.23;;;13.70;;
4585;SDS011;2305;50.118;8.952;2023-02-22T10:17:29;20.23;;;12.93;;
4585;SDS011;2305;50.118;8.952;2023-02-22T10:20:13;20.73;;;12.93;;
4585;SDS011;2305;50.118;8.952;2023-02-22T10:22:57;22.77;;;14.13;;
4585;SDS011;2305;50.118;8.952;2023-02-22T10:25:34;26.87;;;14.03;;
4585;SDS011;2305;50.118;8.952;2023-02-22T10:28:05;23.20;;;12.37;;
4585;SDS011;2305;50.118;8.952;2023-02-22T10:30:40;21.90;;;12.73;;
4585;SDS011;2305;50.118;8.952;2023-02-22T10:33:16;19.30;;;13.20;;
4585;SDS011;2305;50.118;8.952;2023-02-22T10:35:48;19.97;;;13.13;;
4585;SDS011;2305;50.118;8.952;2023-02-22T10:38:19;23.13;;;12.80;;
4585;SDS011;2305;50.118;8.952;2023-02-22T10:40:52;32.23;;;13.63;;
4585;SDS011;2305;50.118;8.952;2023-02-22T10:43:23;25.33;;;14.10;;
4585;SDS011;2305;50.118;8.952;2023-02-22T10:45:55;23.27;;;14.90;;
4585;SDS011;2305;50.118;8.952;2023-02-22T10:48:30;36.63;;;14.67;;
4585;SDS011;2305;50.118;8.952;2023-02-22T10:51:03;24.10;;;13.90;;
4585;SDS011;2305;50.118;8.952;2023-02-22T10:53:34;24.37;;;14.37;;
4585;SDS011;2305;50.118;8.952;2023-02-22T10:56:10;24.40;;;14.10;;
4585;SDS011;2305;50.118;8.952;2023-02-22T10:58:48;24.17;;;13.70;;
4585;SDS011;2305;50.118;8.952;2023-02-22T11:01:26;21.37;;;13.80;;
4585;SDS011;2305;50.118;8.952;2023-02-22T11:04:04;22.57;;;14.20;;
4585;SDS011;2305;50.118;8.952;2023-02-22T11:06:41;21.67;;;12.23;;
4585;SDS011;2305;50.118;8.952;2023-02-22T11:09:12;22.27;;;13.23;;
4585;SDS011;2305;50.118;8.952;2023-02-22T11:11:45;28.20;;;12.77;;
4585;SDS011;2305;50.118;8.952;2023-02-22T11:14:23;22.13;;;12.57;;
4585;SDS011;2305;50.118;8.952;2023-02-22T11:16:54;19.30;;;12.20;;
4585;SDS011;2305;50.118;8.952;2023-02-22T11:19:28;24.30;;;12.70;;
4585;SDS011;2305;50.118;8.952;2023-02-22T11:22:00;19.43;;;12.47;;
4585;SDS011;2305;50.118;8.952;2023-02-22T11:24:43;22.40;;;12.60;;
4585;SDS011;2305;50.118;8.952;2023-02-22T11:27:26;20.80;;;11.27;;
4585;SDS011;2305;50.118;8.952;2023-02-22T11:30:06;18.83;;;12.47;;
4585;SDS011;2305;50.118;8.952;2023-02-22T11:32:48;21.57;;;12.97;;
4585;SDS011;2305;50.118;8.952;2023-02-22T11:38:17;24.00;;;12.80;;
4585;SDS011;2305;50.118;8.952;2023-02-22T11:41:03;22.07;;;12.50;;
4585;SDS011;2305;50.118;8.952;2023-02-22T11:43:36;17.80;;;11.67;;
4585;SDS011;2305;50.118;8.952;2023-02-22T11:46:05;18.30;;;10.90;;
4585;SDS011;2305;50.118;8.952;2023-02-22T11:48:38;20.13;;;12.50;;
4585;SDS011;2305;50.118;8.952;2023-02-22T11:51:18;16.17;;;11.20;;
4585;SDS011;2305;50.118;8.952;2023-02-22T11:54:02;17.80;;;12.07;;
4585;SDS011;2305;50.118;8.952;2023-02-22T11:56:56;26.60;;;11.77;;
4585;SDS011;2305;50.118;8.952;2023-02-22T11:59:39;18.47;;;11.37;;
4585;SDS011;2305;50.118;8.952;2023-02-22T12:02:22;18.03;;;12.30;;
4585;SDS011;2305;50.118;8.952;2023-02-22T12:05:22;15.07;;;10.73;;
4585;SDS011;2305;50.118;8.952;2023-02-22T12:08:09;16.33;;;11.83;;
4585;SDS011;2305;50.118;8.952;2023-02-22T12:10:49;15.90;;;11.27;;
4585;SDS011;2305;50.118;8.952;2023-02-22T12:13:32;16.63;;;11.50;;
4585;SDS011;2305;50.118;8.952;2023-02-22T12:16:10;14.80;;;11.63;;
4585;SDS011;2305;50.118;8.952;2023-02-22T12:18:55;14.53;;;11.73;;
4585;SDS011;2305;50.118;8.952;2023-02-22T12:21:35;16.73;;;10.83;;
4585;SDS011;2305;50.118;8.952;2023-02-22T12:24:09;19.67;;;10.87;;
4585;SDS011;2305;50.118;8.952;2023-02-22T12:26:42;16.43;;;11.20;;
4585;SDS011;2305;50.118;8.952;2023-02-22T12:29:17;16.03;;;9.70;;
4585;SDS011;2305;50.118;8.952;2023-02-22T12:31:55;17.40;;;10.83;;
4585;SDS011;2305;50.118;8.952;2023-02-22T12:34:32;18.43;;;9.67;;
4585;SDS011;2305;50.118;8.952;2023-02-22T12:37:06;16.23;;;9.70;;
4585;SDS011;2305;50.118;8.952;2023-02-22T12:39:45;20.20;;;10.73;;
4585;SDS011;2305;50.118;8.952;2023-02-22T12:42:21;19.30;;;10.70;;
4585;SDS011;2305;50.118;8.952;2023-02-22T12:44:59;19.40;;;13.20;;
4585;SDS011;2305;50.118;8.952;2023-02-22T12:47:39;16.60;;;10.80;;
4585;SDS011;2305;50.118;8.952;2023-02-22T12:50:16;19.10;;;10.30;;
4585;SDS011;2305;50.118;8.952;2023-02-22T12:52:49;16.00;;;10.10;;
4585;SDS011;2305;50.118;8.952;2023-02-22T12:55:23;15.60;;;9.23;;
4585;SDS011;2305;50.118;8.952;2023-02-22T12:57:54;18.10;;;11.50;;
4585;SDS011;2305;50.118;8.952;2023-02-22T13:00:32;14.70;;;10.80;;
4585;SDS011;2305;50.118;8.952;2023-02-22T13:03:15;13.90;;;9.70;;
4585;SDS011;2305;50.118;8.952;2023-02-22T13:05:55;16.80;;;10.83;;
4585;SDS011;2305;50.118;8.952;2023-02-22T13:08:33;14.57;;;10.63;;
4585;SDS011;2305;50.118;8.952;2023-02-22T13:11:09;18.57;;;10.33;;
4585;SDS011;2305;50.118;8.952;2023-02-22T13:13:48;15.17;;;10.50;;
4585;SDS011;2305;50.118;8.952;2023-02-22T13:16:35;21.03;;;9.30;;
4585;SDS011;2305;50.118;8.952;2023-02-22T13:19:13;14.70;;;10.43;;
4585;SDS011;2305;50.118;8.952;2023-02-22T13:21:51;18.53;;;10.40;;
4585;SDS011;2305;50.118;8.952;2023-02-22T13:24:27;16.47;;;9.20;;
4585;SDS011;2305;50.118;8.952;2023-02-22T13:27:08;13.97;;;10.20;;
4585;SDS011;2305;50.118;8.952;2023-02-22T13:29:43;16.83;;;8.67;;
4585;SDS011;2305;50.118;8.952;2023-02-22T13:32:18;14.47;;;9.33;;
4585;SDS011;2305;50.118;8.952;2023-02-22T13:38:09;21.40;;;9.60;;
4585;SDS011;2305;50.118;8.952;2023-02-22T13:40:58;17.00;;;9.20;;
4585;SDS011;2305;50.118;8.952;2023-02-22T13:49:49;10.97;;;8.30;;
4585;SDS011;2305;50.118;8.952;2023-02-22T13:52:29;12.13;;;8.50;;
4585;SDS011;2305;50.118;8.952;2023-02-22T13:55:05;14.73;;;9.00;;
4585;SDS011;2305;50.118;8.952;2023-02-22T13:57:42;12.40;;;8.60;;
4585;SDS011;2305;50.118;8.952;2023-02-22T14:00:19;14.00;;;8.43;;
4585;SDS011;2305;50.118;8.952;2023-02-22T14:02:57;17.80;;;9.90;;
4585;SDS011;2305;50.118;8.952;2023-02-22T14:05:36;15.03;;;9.07;;
4585;SDS011;2305;50.118;8.952;2023-02-22T14:14:13;20.23;;;8.47;;
4585;SDS011;2305;50.118;8.952;2023-02-22T14:22:27;12.27;;;8.30;;
4585;SDS011;2305;50.118;8.952;2023-02-22T14:24:58;16.17;;;8.97;;
4585;SDS011;2305;50.118;8.952;2023-02-22T14:27:37;15.33;;;8.93;;
4585;SDS011;2305;50.118;8.952;2023-02-22T14:30:20;21.70;;;9.53;;
4585;SDS011;2305;50.118;8.952;2023-02-22T14:32:52;15.53;;;7.97;;
4585;SDS011;2305;50.118;8.952;2023-02-22T14:35:20;13.73;;;8.37;;
4585;SDS011;2305;50.118;8.952;2023-02-22T14:37:59;15.73;;;7.63;;
4585;SDS011;2305;50.118;8.952;2023-02-22T14:40:30;14.20;;;8.50;;
4585;SDS011;2305;50.118;8.952;2023-02-22T14:43:02;14.33;;;8.53;;
4585;SDS011;2305;50.118;8.952;2023-02-22T14:45:33;14.37;;;7.40;;
4585;SDS011;2305;50.118;8.952;2023-02-22T14:48:07;9.80;;;6.93;;
4585;SDS011;2305;50.118;8.952;2023-02-22T14:50:51;12.37;;;7.60;;
4585;SDS011;2305;50.118;8.952;2023-02-22T14:53:23;15.57;;;7.70;;
4585;SDS011;2305;50.118;8.952;2023-02-22T14:55:57;18.53;;;7.57;;
4585;SDS011;2305;50.118;8.952;2023-02-22T14:58:31;13.43;;;7.30;;
4585;SDS011;2305;50.118;8.952;2023-02-22T15:01:20;12.60;;;7.20;;
4585;SDS011;2305;50.118;8.952;2023-02-22T15:04:15;16.87;;;7.40;;
4585;SDS011;2305;50.118;8.952;2023-02-22T15:06:43;12.07;;;7.60;;
4585;SDS011;2305;50.118;8.952;2023-02-22T15:09:14;12.10;;;7.80;;
4585;SDS011;2305;50.118;8.952;2023-02-22T15:11:53;15.20;;;7.10;;
4585;SDS011;2305;50.118;8.952;2023-02-22T15:14:39;12.90;;;7.30;;
4585;SDS011;2305;50.118;8.952;2023-02-22T15:17:12;11.57;;;7.67;;
4585;SDS011;2305;50.118;8.952;2023-02-22T15:19:45;17.80;;;8.30;;
4585;SDS011;2305;50.118;8.952;2023-02-22T15:22:17;11.23;;;7.90;;
4585;SDS011;2305;50.118;8.952;2023-02-22T15:24:53;16.70;;;7.70;;
4585;SDS011;2305;50.118;8.952;2023-02-22T15:27:29;14.67;;;8.53;;
4585;SDS011;2305;50.118;8.952;2023-02-22T15:30:04;9.80;;;7.77;;
4585;SDS011;2305;50.118;8.952;2023-02-22T15:32:35;16.30;;;8.87;;
4585;SDS011;2305;50.118;8.952;2023-02-22T15:35:26;11.07;;;7.70;;
4585;SDS011;2305;50.118;8.952;2023-02-22T15:37:57;12.00;;;7.77;;
4585;SDS011;2305;50.118;8.952;2023-02-22T15:40:27;12.80;;;8.87;;
4585;SDS011;2305;50.118;8.952;2023-02-22T15:43:00;12.70;;;8.90;;
4585;SDS011;2305;50.118;8.952;2023-02-22T15:45:29;13.50;;;8.57;;
4585;SDS011;2305;50.118;8.952;2023-02-22T15:47:58;12.23;;;8.37;;
4585;SDS011;2305;50.118;8.952;2023-02-22T15:50:32;14.20;;;8.93;;
4585;SDS011;2305;50.118;8.952;2023-02-22T15:53:02;13.97;;;7.87;;
4585;SDS011;2305;50.118;8.952;2023-02-22T15:55:36;13.43;;;8.07;;
4585;SDS011;2305;50.118;8.952;2023-02-22T15:58:09;19.23;;;8.60;;
4585;SDS011;2305;50.118;8.952;2023-02-22T16:00:40;13.03;;;8.47;;
4585;SDS011;2305;50.118;8.952;2023-02-22T16:03:10;18.83;;;8.10;;
4585;SDS011;2305;50.118;8.952;2023-02-22T16:05:40;12.60;;;8.27;;
4585;SDS011;2305;50.118;8.952;2023-02-22T16:08:13;15.70;;;8.60;;